sensor_id;sensor_type;location;lat;lon;timestamp;temperature;humidity
14401;DHT22;7285;50.894;5.462;2023-08-21T00:00:26;20.10;96.00
14401;DHT22;7285;50.894;5.462;2023-08-21T00:02:53;20.10;99.90
14401;DHT22;7285;50.894;5.462;2023-08-21T00:05:20;20.00;99.90
14401;DHT22;7285;50.894;5.462;2023-08-21T00:07:47;20.00;99.90
14401;DHT22;7285;50.894;5.462;2023-08-21T00:10:18;20.00;59.50
14401;DHT22;7285;50.894;5.462;2023-08-21T00:12:45;20.00;47.60
14401;DHT22;7285;50.894;5.462;2023-08-21T00:15:12;20.00;53.00
14401;DHT22;7285;50.894;5.462;2023-08-21T00:17:39;20.00;22.60
14401;DHT22;7285;50.894;5.462;2023-08-21T00:20:07;19.90;47.40
14401;DHT22;7285;50.894;5.462;2023-08-21T00:22:35;20.00;99.90
14401;DHT22;7285;50.894;5.462;2023-08-21T00:25:02;19.90;99.90
14401;DHT22;7285;50.894;5.462;2023-08-21T00:27:31;19.90;99.90
14401;DHT22;7285;50.894;5.462;2023-08-21T00:30:00;19.80;99.90
14401;DHT22;7285;50.894;5.462;2023-08-21T00:32:27;19.90;99.90
14401;DHT22;7285;50.894;5.462;2023-08-21T00:34:54;19.80;99.90
14401;DHT22;7285;50.894;5.462;2023-08-21T00:37:21;19.80;99.90
14401;DHT22;7285;50.894;5.462;2023-08-21T00:39:49;19.80;99.90
14401;DHT22;7285;50.894;5.462;2023-08-21T00:42:17;19.80;99.90
14401;DHT22;7285;50.894;5.462;2023-08-21T00:44:45;19.80;99.90
14401;DHT22;7285;50.894;5.462;2023-08-21T00:47:12;19.70;99.90
14401;DHT22;7285;50.894;5.462;2023-08-21T00:49:46;19.70;99.90
14401;DHT22;7285;50.894;5.462;2023-08-21T00:52:15;19.70;99.90
14401;DHT22;7285;50.894;5.462;2023-08-21T00:54:49;19.70;99.90
14401;DHT22;7285;50.894;5.462;2023-08-21T00:57:25;19.70;99.90
14401;DHT22;7285;50.894;5.462;2023-08-21T00:59:59;19.60;99.90
14401;DHT22;7285;50.894;5.462;2023-08-21T01:02:26;19.60;1.00
14401;DHT22;7285;50.894;5.462;2023-08-21T01:04:54;19.60;1.00
14401;DHT22;7285;50.894;5.462;2023-08-21T01:07:23;19.60;99.90
14401;DHT22;7285;50.894;5.462;2023-08-21T01:10:01;19.60;1.00
14401;DHT22;7285;50.894;5.462;2023-08-21T01:12:39;19.60;1.00
14401;DHT22;7285;50.894;5.462;2023-08-21T01:15:11;19.50;1.00
14401;DHT22;7285;50.894;5.462;2023-08-21T01:17:39;19.50;1.00
14401;DHT22;7285;50.894;5.462;2023-08-21T01:20:08;19.50;1.00
14401;DHT22;7285;50.894;5.462;2023-08-21T01:22:36;19.40;1.00
14401;DHT22;7285;50.894;5.462;2023-08-21T01:25:05;19.40;1.00
14401;DHT22;7285;50.894;5.462;2023-08-21T01:27:34;19.40;1.00
14401;DHT22;7285;50.894;5.462;2023-08-21T01:30:02;19.30;1.00
14401;DHT22;7285;50.894;5.462;2023-08-21T01:32:35;19.20;1.00
14401;DHT22;7285;50.894;5.462;2023-08-21T01:35:05;19.20;99.90
14401;DHT22;7285;50.894;5.462;2023-08-21T01:37:34;19.10;99.90
14401;DHT22;7285;50.894;5.462;2023-08-21T01:40:02;19.10;99.90
14401;DHT22;7285;50.894;5.462;2023-08-21T01:42:31;19.00;1.00
14401;DHT22;7285;50.894;5.462;2023-08-21T01:44:58;19.00;1.00
14401;DHT22;7285;50.894;5.462;2023-08-21T01:47:25;19.00;1.00
14401;DHT22;7285;50.894;5.462;2023-08-21T01:49:52;18.80;1.00
14401;DHT22;7285;50.894;5.462;2023-08-21T01:52:19;18.80;99.90
14401;DHT22;7285;50.894;5.462;2023-08-21T01:54:50;18.70;99.90
14401;DHT22;7285;50.894;5.462;2023-08-21T01:57:18;18.70;99.90
14401;DHT22;7285;50.894;5.462;2023-08-21T01:59:48;18.60;99.90
14401;DHT22;7285;50.894;5.462;2023-08-21T02:02:15;18.60;99.90
14401;DHT22;7285;50.894;5.462;2023-08-21T02:04:42;18.60;1.00
14401;DHT22;7285;50.894;5.462;2023-08-21T02:07:09;18.50;1.00
14401;DHT22;7285;50.894;5.462;2023-08-21T02:09:36;18.50;1.00
14401;DHT22;7285;50.894;5.462;2023-08-21T02:12:03;18.40;1.00
14401;DHT22;7285;50.894;5.462;2023-08-21T02:14:30;18.40;99.90
14401;DHT22;7285;50.894;5.462;2023-08-21T02:16:59;18.50;99.90
14401;DHT22;7285;50.894;5.462;2023-08-21T02:19:26;18.50;99.90
14401;DHT22;7285;50.894;5.462;2023-08-21T02:21:53;18.50;99.90
14401;DHT22;7285;50.894;5.462;2023-08-21T02:24:20;18.50;1.00
14401;DHT22;7285;50.894;5.462;2023-08-21T02:26:47;18.50;1.00
14401;DHT22;7285;50.894;5.462;2023-08-21T02:29:15;18.40;93.30
14401;DHT22;7285;50.894;5.462;2023-08-21T02:31:43;18.40;99.90
14401;DHT22;7285;50.894;5.462;2023-08-21T02:34:11;18.30;1.00
14401;DHT22;7285;50.894;5.462;2023-08-21T02:36:38;18.30;1.00
14401;DHT22;7285;50.894;5.462;2023-08-21T02:39:05;18.20;1.00
14401;DHT22;7285;50.894;5.462;2023-08-21T02:41:32;18.20;1.00
14401;DHT22;7285;50.894;5.462;2023-08-21T02:43:59;18.10;99.90
14401;DHT22;7285;50.894;5.462;2023-08-21T02:46:27;18.00;1.00
14401;DHT22;7285;50.894;5.462;2023-08-21T02:48:54;18.00;97.20
14401;DHT22;7285;50.894;5.462;2023-08-21T02:51:23;17.90;1.00
14401;DHT22;7285;50.894;5.462;2023-08-21T02:53:50;17.80;1.00
14401;DHT22;7285;50.894;5.462;2023-08-21T02:56:16;17.70;99.90
14401;DHT22;7285;50.894;5.462;2023-08-21T02:58:44;17.70;1.00
14401;DHT22;7285;50.894;5.462;2023-08-21T03:01:11;17.70;99.90
14401;DHT22;7285;50.894;5.462;2023-08-21T03:03:38;17.70;1.00
14401;DHT22;7285;50.894;5.462;2023-08-21T03:06:05;17.70;99.90
14401;DHT22;7285;50.894;5.462;2023-08-21T03:08:33;17.60;99.90
14401;DHT22;7285;50.894;5.462;2023-08-21T03:11:00;17.70;99.90
14401;DHT22;7285;50.894;5.462;2023-08-21T03:13:27;17.70;99.90
14401;DHT22;7285;50.894;5.462;2023-08-21T03:15:54;17.60;99.90
14401;DHT22;7285;50.894;5.462;2023-08-21T03:18:21;17.60;99.90
14401;DHT22;7285;50.894;5.462;2023-08-21T03:20:48;17.60;99.90
14401;DHT22;7285;50.894;5.462;2023-08-21T03:23:15;17.50;1.00
14401;DHT22;7285;50.894;5.462;2023-08-21T03:25:43;17.50;1.00
14401;DHT22;7285;50.894;5.462;2023-08-21T03:28:10;17.50;99.90
14401;DHT22;7285;50.894;5.462;2023-08-21T03:30:39;17.50;99.90
14401;DHT22;7285;50.894;5.462;2023-08-21T03:33:06;17.50;99.90
14401;DHT22;7285;50.894;5.462;2023-08-21T03:35:34;17.50;1.00
14401;DHT22;7285;50.894;5.462;2023-08-21T03:38:01;17.50;99.90
14401;DHT22;7285;50.894;5.462;2023-08-21T03:40:28;17.50;1.00
14401;DHT22;7285;50.894;5.462;2023-08-21T03:42:56;17.40;1.00
14401;DHT22;7285;50.894;5.462;2023-08-21T03:45:23;17.40;1.00
14401;DHT22;7285;50.894;5.462;2023-08-21T03:47:50;17.30;81.30
14401;DHT22;7285;50.894;5.462;2023-08-21T03:50:18;17.30;99.90
14401;DHT22;7285;50.894;5.462;2023-08-21T03:52:45;17.30;99.90
14401;DHT22;7285;50.894;5.462;2023-08-21T03:55:12;17.30;1.00
14401;DHT22;7285;50.894;5.462;2023-08-21T03:57:40;17.30;1.00
14401;DHT22;7285;50.894;5.462;2023-08-21T04:00:09;17.20;1.00
14401;DHT22;7285;50.894;5.462;2023-08-21T04:02:36;17.10;1.00
14401;DHT22;7285;50.894;5.462;2023-08-21T04:05:06;17.10;1.00
14401;DHT22;7285;50.894;5.462;2023-08-21T04:07:34;17.10;16.30
14401;DHT22;7285;50.894;5.462;2023-08-21T04:10:01;17.10;99.90
14401;DHT22;7285;50.894;5.462;2023-08-21T04:12:28;16.90;99.90
14401;DHT22;7285;50.894;5.462;2023-08-21T04:14:55;16.80;1.00
14401;DHT22;7285;50.894;5.462;2023-08-21T04:17:24;16.70;99.90
14401;DHT22;7285;50.894;5.462;2023-08-21T04:19:51;16.60;99.90
14401;DHT22;7285;50.894;5.462;2023-08-21T04:22:19;16.70;1.00
14401;DHT22;7285;50.894;5.462;2023-08-21T04:24:46;16.60;1.00
14401;DHT22;7285;50.894;5.462;2023-08-21T04:27:13;16.60;99.90
14401;DHT22;7285;50.894;5.462;2023-08-21T04:29:40;16.60;99.90
14401;DHT22;7285;50.894;5.462;2023-08-21T04:32:08;16.60;1.00
14401;DHT22;7285;50.894;5.462;2023-08-21T04:34:36;16.60;1.00
14401;DHT22;7285;50.894;5.462;2023-08-21T04:37:03;16.60;99.90
14401;DHT22;7285;50.894;5.462;2023-08-21T04:39:33;16.60;1.00
14401;DHT22;7285;50.894;5.462;2023-08-21T04:42:02;16.60;1.00
14401;DHT22;7285;50.894;5.462;2023-08-21T04:44:30;16.60;1.00
14401;DHT22;7285;50.894;5.462;2023-08-21T04:46:57;16.60;99.90
14401;DHT22;7285;50.894;5.462;2023-08-21T04:49:24;16.60;99.90
14401;DHT22;7285;50.894;5.462;2023-08-21T04:51:52;16.60;99.90
14401;DHT22;7285;50.894;5.462;2023-08-21T04:54:19;16.60;99.90
14401;DHT22;7285;50.894;5.462;2023-08-21T04:56:46;16.50;1.00
14401;DHT22;7285;50.894;5.462;2023-08-21T04:59:13;16.50;1.00
14401;DHT22;7285;50.894;5.462;2023-08-21T05:01:40;16.50;1.00
14401;DHT22;7285;50.894;5.462;2023-08-21T05:04:07;16.50;10.30
14401;DHT22;7285;50.894;5.462;2023-08-21T05:06:34;16.60;8.70
14401;DHT22;7285;50.894;5.462;2023-08-21T05:09:02;16.50;1.00
14401;DHT22;7285;50.894;5.462;2023-08-21T05:11:29;16.60;1.00
14401;DHT22;7285;50.894;5.462;2023-08-21T05:13:56;16.60;99.90
14401;DHT22;7285;50.894;5.462;2023-08-21T05:16:23;16.60;99.90
14401;DHT22;7285;50.894;5.462;2023-08-21T05:18:50;16.60;99.90
14401;DHT22;7285;50.894;5.462;2023-08-21T05:21:19;16.60;99.90
14401;DHT22;7285;50.894;5.462;2023-08-21T05:23:46;16.60;99.90
14401;DHT22;7285;50.894;5.462;2023-08-21T05:26:14;16.60;99.90
14401;DHT22;7285;50.894;5.462;2023-08-21T05:28:41;16.60;1.00
14401;DHT22;7285;50.894;5.462;2023-08-21T05:31:08;16.60;1.00
14401;DHT22;7285;50.894;5.462;2023-08-21T05:33:35;16.70;1.00
14401;DHT22;7285;50.894;5.462;2023-08-21T05:36:03;16.70;1.00
14401;DHT22;7285;50.894;5.462;2023-08-21T05:38:30;16.70;1.00
14401;DHT22;7285;50.894;5.462;2023-08-21T05:40:57;16.90;13.90
14401;DHT22;7285;50.894;5.462;2023-08-21T05:43:26;16.90;99.90
14401;DHT22;7285;50.894;5.462;2023-08-21T05:45:53;17.00;99.90
14401;DHT22;7285;50.894;5.462;2023-08-21T05:48:20;17.00;99.90
14401;DHT22;7285;50.894;5.462;2023-08-21T05:50:50;17.10;99.90
14401;DHT22;7285;50.894;5.462;2023-08-21T05:53:17;17.20;99.90
14401;DHT22;7285;50.894;5.462;2023-08-21T05:55:44;17.20;99.90
14401;DHT22;7285;50.894;5.462;2023-08-21T05:58:11;17.20;55.60
14401;DHT22;7285;50.894;5.462;2023-08-21T06:00:39;17.20;1.00
14401;DHT22;7285;50.894;5.462;2023-08-21T06:03:06;17.40;1.00
14401;DHT22;7285;50.894;5.462;2023-08-21T06:05:33;17.40;1.00
14401;DHT22;7285;50.894;5.462;2023-08-21T06:08:00;17.50;1.00
14401;DHT22;7285;50.894;5.462;2023-08-21T06:10:30;17.60;1.00
14401;DHT22;7285;50.894;5.462;2023-08-21T06:12:57;17.60;1.00
14401;DHT22;7285;50.894;5.462;2023-08-21T06:15:24;17.70;1.00
14401;DHT22;7285;50.894;5.462;2023-08-21T06:17:53;17.90;1.00
14401;DHT22;7285;50.894;5.462;2023-08-21T06:20:20;17.90;99.90
14401;DHT22;7285;50.894;5.462;2023-08-21T06:22:48;18.00;1.00
14401;DHT22;7285;50.894;5.462;2023-08-21T06:25:15;18.10;1.00
14401;DHT22;7285;50.894;5.462;2023-08-21T06:27:44;18.20;1.00
14401;DHT22;7285;50.894;5.462;2023-08-21T06:30:12;18.30;1.00
14401;DHT22;7285;50.894;5.462;2023-08-21T06:32:42;18.40;99.90
14401;DHT22;7285;50.894;5.462;2023-08-21T06:35:11;18.60;1.00
14401;DHT22;7285;50.894;5.462;2023-08-21T06:37:38;18.70;99.90
14401;DHT22;7285;50.894;5.462;2023-08-21T06:40:06;18.80;99.90
14401;DHT22;7285;50.894;5.462;2023-08-21T06:42:33;19.00;99.90
14401;DHT22;7285;50.894;5.462;2023-08-21T06:45:00;19.10;99.90
14401;DHT22;7285;50.894;5.462;2023-08-21T06:47:29;19.20;1.00
14401;DHT22;7285;50.894;5.462;2023-08-21T06:49:56;19.30;1.00
14401;DHT22;7285;50.894;5.462;2023-08-21T06:52:24;19.30;1.00
14401;DHT22;7285;50.894;5.462;2023-08-21T06:54:51;19.20;99.90
14401;DHT22;7285;50.894;5.462;2023-08-21T06:57:18;19.10;1.00
14401;DHT22;7285;50.894;5.462;2023-08-21T06:59:45;19.10;1.00
14401;DHT22;7285;50.894;5.462;2023-08-21T07:02:12;19.20;1.00
14401;DHT22;7285;50.894;5.462;2023-08-21T07:04:38;19.30;1.00
14401;DHT22;7285;50.894;5.462;2023-08-21T07:07:07;19.40;99.90
14401;DHT22;7285;50.894;5.462;2023-08-21T07:09:36;19.50;1.00
14401;DHT22;7285;50.894;5.462;2023-08-21T07:12:03;19.60;1.00
14401;DHT22;7285;50.894;5.462;2023-08-21T07:14:30;19.70;1.00
14401;DHT22;7285;50.894;5.462;2023-08-21T07:16:57;19.80;99.90
14401;DHT22;7285;50.894;5.462;2023-08-21T07:19:24;19.90;99.90
14401;DHT22;7285;50.894;5.462;2023-08-21T07:21:51;20.00;99.90
14401;DHT22;7285;50.894;5.462;2023-08-21T07:24:18;20.20;1.00
14401;DHT22;7285;50.894;5.462;2023-08-21T07:26:46;20.20;1.00
14401;DHT22;7285;50.894;5.462;2023-08-21T07:29:15;20.30;99.90
14401;DHT22;7285;50.894;5.462;2023-08-21T07:31:42;20.40;7.10
14401;DHT22;7285;50.894;5.462;2023-08-21T07:34:09;20.50;1.00
14401;DHT22;7285;50.894;5.462;2023-08-21T07:36:36;20.50;1.00
14401;DHT22;7285;50.894;5.462;2023-08-21T07:39:03;20.70;1.00
14401;DHT22;7285;50.894;5.462;2023-08-21T07:41:30;20.80;1.00
14401;DHT22;7285;50.894;5.462;2023-08-21T07:43:58;20.90;1.00
14401;DHT22;7285;50.894;5.462;2023-08-21T07:46:25;21.00;1.00
14401;DHT22;7285;50.894;5.462;2023-08-21T07:48:53;21.00;1.00
14401;DHT22;7285;50.894;5.462;2023-08-21T07:51:20;21.20;99.90
14401;DHT22;7285;50.894;5.462;2023-08-21T07:53:47;21.30;99.90
14401;DHT22;7285;50.894;5.462;2023-08-21T07:56:14;21.40;45.80
14401;DHT22;7285;50.894;5.462;2023-08-21T07:58:41;21.50;1.00
14401;DHT22;7285;50.894;5.462;2023-08-21T08:01:09;21.70;1.00
14401;DHT22;7285;50.894;5.462;2023-08-21T08:03:36;21.90;1.00
14401;DHT22;7285;50.894;5.462;2023-08-21T08:06:03;22.00;1.00
14401;DHT22;7285;50.894;5.462;2023-08-21T08:08:30;21.90;1.00
14401;DHT22;7285;50.894;5.462;2023-08-21T08:11:01;21.90;99.90
14401;DHT22;7285;50.894;5.462;2023-08-21T08:13:28;22.10;1.00
14401;DHT22;7285;50.894;5.462;2023-08-21T08:15:55;22.20;99.90
14401;DHT22;7285;50.894;5.462;2023-08-21T08:18:23;22.30;99.90
14401;DHT22;7285;50.894;5.462;2023-08-21T08:20:50;22.30;99.90
14401;DHT22;7285;50.894;5.462;2023-08-21T08:23:18;22.40;99.90
14401;DHT22;7285;50.894;5.462;2023-08-21T08:25:45;22.50;99.90
14401;DHT22;7285;50.894;5.462;2023-08-21T08:28:12;22.50;59.70
14401;DHT22;7285;50.894;5.462;2023-08-21T08:30:39;22.70;99.90
14401;DHT22;7285;50.894;5.462;2023-08-21T08:33:06;22.80;99.90
14401;DHT22;7285;50.894;5.462;2023-08-21T08:35:34;22.90;97.50
14401;DHT22;7285;50.894;5.462;2023-08-21T08:38:01;22.90;67.30
14401;DHT22;7285;50.894;5.462;2023-08-21T08:40:29;23.10;1.00
14401;DHT22;7285;50.894;5.462;2023-08-21T08:42:56;23.10;1.00
14401;DHT22;7285;50.894;5.462;2023-08-21T08:45:28;23.20;1.00
14401;DHT22;7285;50.894;5.462;2023-08-21T08:47:58;23.30;1.00
14401;DHT22;7285;50.894;5.462;2023-08-21T08:50:28;23.30;1.00
14401;DHT22;7285;50.894;5.462;2023-08-21T08:52:58;23.60;1.00
14401;DHT22;7285;50.894;5.462;2023-08-21T08:55:25;23.70;1.00
14401;DHT22;7285;50.894;5.462;2023-08-21T08:57:53;23.80;1.00
14401;DHT22;7285;50.894;5.462;2023-08-21T09:00:20;23.90;1.00
14401;DHT22;7285;50.894;5.462;2023-08-21T09:02:48;24.10;1.00
14401;DHT22;7285;50.894;5.462;2023-08-21T09:05:15;24.20;1.00
14401;DHT22;7285;50.894;5.462;2023-08-21T09:07:42;24.40;1.00
14401;DHT22;7285;50.894;5.462;2023-08-21T09:10:14;24.50;99.90
14401;DHT22;7285;50.894;5.462;2023-08-21T09:12:45;24.60;99.90
14401;DHT22;7285;50.894;5.462;2023-08-21T09:15:12;24.80;1.00
14401;DHT22;7285;50.894;5.462;2023-08-21T09:17:39;24.80;99.90
14401;DHT22;7285;50.894;5.462;2023-08-21T09:20:07;24.80;99.90
14401;DHT22;7285;50.894;5.462;2023-08-21T09:22:35;24.80;99.90
14401;DHT22;7285;50.894;5.462;2023-08-21T09:25:04;25.00;99.90
14401;DHT22;7285;50.894;5.462;2023-08-21T09:27:34;25.20;99.90
14401;DHT22;7285;50.894;5.462;2023-08-21T09:30:01;25.40;99.90
14401;DHT22;7285;50.894;5.462;2023-08-21T09:32:30;25.40;99.90
14401;DHT22;7285;50.894;5.462;2023-08-21T09:34:57;25.30;66.20
14401;DHT22;7285;50.894;5.462;2023-08-21T09:37:29;25.30;51.40
14401;DHT22;7285;50.894;5.462;2023-08-21T09:40:00;25.40;59.40
14401;DHT22;7285;50.894;5.462;2023-08-21T09:42:30;25.40;9.60
14401;DHT22;7285;50.894;5.462;2023-08-21T09:45:00;25.50;1.00
14401;DHT22;7285;50.894;5.462;2023-08-21T09:47:30;25.60;1.00
14401;DHT22;7285;50.894;5.462;2023-08-21T09:49:58;25.70;1.00
14401;DHT22;7285;50.894;5.462;2023-08-21T09:52:26;26.10;1.00
14401;DHT22;7285;50.894;5.462;2023-08-21T09:54:53;26.30;1.00
14401;DHT22;7285;50.894;5.462;2023-08-21T09:57:22;26.40;1.00
14401;DHT22;7285;50.894;5.462;2023-08-21T09:59:52;26.60;1.00
14401;DHT22;7285;50.894;5.462;2023-08-21T10:02:21;26.60;1.00
14401;DHT22;7285;50.894;5.462;2023-08-21T10:04:50;26.90;1.00
14401;DHT22;7285;50.894;5.462;2023-08-21T10:07:21;26.80;1.00
14401;DHT22;7285;50.894;5.462;2023-08-21T10:09:52;26.70;1.00
14401;DHT22;7285;50.894;5.462;2023-08-21T10:12:20;26.70;1.00
14401;DHT22;7285;50.894;5.462;2023-08-21T10:14:47;26.90;1.00
14401;DHT22;7285;50.894;5.462;2023-08-21T10:17:14;27.20;1.00
14401;DHT22;7285;50.894;5.462;2023-08-21T10:19:51;27.40;1.00
14401;DHT22;7285;50.894;5.462;2023-08-21T10:22:39;27.50;1.00
14401;DHT22;7285;50.894;5.462;2023-08-21T10:25:14;27.30;1.00
14401;DHT22;7285;50.894;5.462;2023-08-21T10:27:42;27.50;1.00
14401;DHT22;7285;50.894;5.462;2023-08-21T10:30:14;27.30;1.00
14401;DHT22;7285;50.894;5.462;2023-08-21T10:32:45;27.40;1.00
14401;DHT22;7285;50.894;5.462;2023-08-21T10:35:18;27.40;1.00
14401;DHT22;7285;50.894;5.462;2023-08-21T10:38:10;27.70;1.00
14401;DHT22;7285;50.894;5.462;2023-08-21T10:40:39;27.80;1.00
14401;DHT22;7285;50.894;5.462;2023-08-21T10:43:39;27.60;1.00
14401;DHT22;7285;50.894;5.462;2023-08-21T10:46:06;28.00;1.00
14401;DHT22;7285;50.894;5.462;2023-08-21T10:48:34;28.30;1.00
14401;DHT22;7285;50.894;5.462;2023-08-21T10:51:06;28.20;1.00
14401;DHT22;7285;50.894;5.462;2023-08-21T10:53:33;27.90;1.00
14401;DHT22;7285;50.894;5.462;2023-08-21T10:56:04;28.10;1.00
14401;DHT22;7285;50.894;5.462;2023-08-21T10:58:34;28.10;1.00
14401;DHT22;7285;50.894;5.462;2023-08-21T11:01:01;28.20;1.00
14401;DHT22;7285;50.894;5.462;2023-08-21T11:03:28;28.40;1.00
14401;DHT22;7285;50.894;5.462;2023-08-21T11:06:05;28.80;1.00
14401;DHT22;7285;50.894;5.462;2023-08-21T11:08:33;29.00;1.00
14401;DHT22;7285;50.894;5.462;2023-08-21T11:11:01;28.60;1.00
14401;DHT22;7285;50.894;5.462;2023-08-21T11:13:28;29.00;1.00
14401;DHT22;7285;50.894;5.462;2023-08-21T11:15:59;28.90;1.00
14401;DHT22;7285;50.894;5.462;2023-08-21T11:18:33;29.10;1.00
14401;DHT22;7285;50.894;5.462;2023-08-21T11:21:08;29.10;1.00
14401;DHT22;7285;50.894;5.462;2023-08-21T11:23:37;29.20;1.00
14401;DHT22;7285;50.894;5.462;2023-08-21T11:26:04;29.40;1.00
14401;DHT22;7285;50.894;5.462;2023-08-21T11:28:32;29.30;1.00
14401;DHT22;7285;50.894;5.462;2023-08-21T11:31:00;29.70;1.00
14401;DHT22;7285;50.894;5.462;2023-08-21T11:33:27;29.60;1.00
14401;DHT22;7285;50.894;5.462;2023-08-21T11:35:55;29.60;1.00
14401;DHT22;7285;50.894;5.462;2023-08-21T11:38:26;29.50;1.00
14401;DHT22;7285;50.894;5.462;2023-08-21T11:40:54;29.70;1.00
14401;DHT22;7285;50.894;5.462;2023-08-21T11:43:22;29.30;1.00
14401;DHT22;7285;50.894;5.462;2023-08-21T11:45:49;29.70;1.00
14401;DHT22;7285;50.894;5.462;2023-08-21T11:48:19;29.40;1.00
14401;DHT22;7285;50.894;5.462;2023-08-21T11:50:48;29.70;1.00
14401;DHT22;7285;50.894;5.462;2023-08-21T11:53:32;30.00;1.00
14401;DHT22;7285;50.894;5.462;2023-08-21T11:56:00;30.20;1.00
14401;DHT22;7285;50.894;5.462;2023-08-21T11:58:27;30.00;1.00
14401;DHT22;7285;50.894;5.462;2023-08-21T12:00:54;30.00;1.00
14401;DHT22;7285;50.894;5.462;2023-08-21T12:03:21;30.60;1.00
14401;DHT22;7285;50.894;5.462;2023-08-21T12:05:48;30.40;1.00
14401;DHT22;7285;50.894;5.462;2023-08-21T12:08:15;30.60;1.00
14401;DHT22;7285;50.894;5.462;2023-08-21T12:10:43;30.40;1.00
14401;DHT22;7285;50.894;5.462;2023-08-21T12:13:12;30.30;1.00
14401;DHT22;7285;50.894;5.462;2023-08-21T12:15:39;30.40;1.00
14401;DHT22;7285;50.894;5.462;2023-08-21T12:18:06;30.40;1.00
14401;DHT22;7285;50.894;5.462;2023-08-21T12:20:33;30.50;1.00
14401;DHT22;7285;50.894;5.462;2023-08-21T12:23:00;30.80;1.00
14401;DHT22;7285;50.894;5.462;2023-08-21T12:25:27;30.80;1.00
14401;DHT22;7285;50.894;5.462;2023-08-21T12:27:55;31.00;1.00
14401;DHT22;7285;50.894;5.462;2023-08-21T12:30:22;30.60;1.00
14401;DHT22;7285;50.894;5.462;2023-08-21T12:32:49;30.50;1.00
14401;DHT22;7285;50.894;5.462;2023-08-21T12:35:16;29.90;1.00
14401;DHT22;7285;50.894;5.462;2023-08-21T12:37:43;29.70;1.00
14401;DHT22;7285;50.894;5.462;2023-08-21T12:40:10;29.60;1.00
14401;DHT22;7285;50.894;5.462;2023-08-21T12:42:37;29.50;1.00
14401;DHT22;7285;50.894;5.462;2023-08-21T12:45:07;29.80;1.00
14401;DHT22;7285;50.894;5.462;2023-08-21T12:47:34;30.60;1.00
14401;DHT22;7285;50.894;5.462;2023-08-21T12:50:01;31.30;1.00
14401;DHT22;7285;50.894;5.462;2023-08-21T12:52:29;32.00;1.00
14401;DHT22;7285;50.894;5.462;2023-08-21T12:54:56;31.80;1.00
14401;DHT22;7285;50.894;5.462;2023-08-21T12:57:22;31.90;1.00
14401;DHT22;7285;50.894;5.462;2023-08-21T12:59:49;32.00;1.00
14401;DHT22;7285;50.894;5.462;2023-08-21T13:02:18;30.70;1.00
14401;DHT22;7285;50.894;5.462;2023-08-21T13:04:45;30.00;1.00
14401;DHT22;7285;50.894;5.462;2023-08-21T13:07:12;29.40;1.00
14401;DHT22;7285;50.894;5.462;2023-08-21T13:09:39;28.90;1.00
14401;DHT22;7285;50.894;5.462;2023-08-21T13:12:06;29.30;1.00
14401;DHT22;7285;50.894;5.462;2023-08-21T13:14:34;30.50;1.00
14401;DHT22;7285;50.894;5.462;2023-08-21T13:17:01;30.80;1.00
14401;DHT22;7285;50.894;5.462;2023-08-21T13:19:30;30.00;1.00
14401;DHT22;7285;50.894;5.462;2023-08-21T13:21:56;29.60;1.00
14401;DHT22;7285;50.894;5.462;2023-08-21T13:24:25;29.90;1.00
14401;DHT22;7285;50.894;5.462;2023-08-21T13:26:53;30.40;1.00
14401;DHT22;7285;50.894;5.462;2023-08-21T13:29:20;29.70;1.00
14401;DHT22;7285;50.894;5.462;2023-08-21T13:31:47;29.30;1.00
14401;DHT22;7285;50.894;5.462;2023-08-21T13:34:14;29.60;1.00
14401;DHT22;7285;50.894;5.462;2023-08-21T13:36:42;29.30;1.00
14401;DHT22;7285;50.894;5.462;2023-08-21T13:39:10;28.20;1.00
14401;DHT22;7285;50.894;5.462;2023-08-21T13:41:39;28.00;1.00
14401;DHT22;7285;50.894;5.462;2023-08-21T13:44:06;27.70;1.00
14401;DHT22;7285;50.894;5.462;2023-08-21T13:46:33;28.10;1.00
14401;DHT22;7285;50.894;5.462;2023-08-21T13:49:00;28.80;1.00
14401;DHT22;7285;50.894;5.462;2023-08-21T13:51:27;28.90;1.00
14401;DHT22;7285;50.894;5.462;2023-08-21T13:53:56;29.40;1.00
14401;DHT22;7285;50.894;5.462;2023-08-21T13:56:23;29.60;1.00
14401;DHT22;7285;50.894;5.462;2023-08-21T13:58:50;29.70;1.00
14401;DHT22;7285;50.894;5.462;2023-08-21T14:01:17;29.60;1.00
14401;DHT22;7285;50.894;5.462;2023-08-21T14:03:43;29.90;1.00
14401;DHT22;7285;50.894;5.462;2023-08-21T14:06:11;29.90;1.00
14401;DHT22;7285;50.894;5.462;2023-08-21T14:08:38;29.90;1.00
14401;DHT22;7285;50.894;5.462;2023-08-21T14:11:06;29.70;1.00
14401;DHT22;7285;50.894;5.462;2023-08-21T14:13:33;30.00;1.00
14401;DHT22;7285;50.894;5.462;2023-08-21T14:16:00;29.80;1.00
14401;DHT22;7285;50.894;5.462;2023-08-21T14:18:27;30.00;1.00
14401;DHT22;7285;50.894;5.462;2023-08-21T14:20:54;30.20;1.00
14401;DHT22;7285;50.894;5.462;2023-08-21T14:23:21;30.20;1.00
14401;DHT22;7285;50.894;5.462;2023-08-21T14:25:48;30.50;1.00
14401;DHT22;7285;50.894;5.462;2023-08-21T14:28:16;30.70;1.00
14401;DHT22;7285;50.894;5.462;2023-08-21T14:30:43;30.90;1.00
14401;DHT22;7285;50.894;5.462;2023-08-21T14:33:10;30.80;1.00
14401;DHT22;7285;50.894;5.462;2023-08-21T14:35:37;31.00;1.00
14401;DHT22;7285;50.894;5.462;2023-08-21T14:38:04;31.10;1.00
14401;DHT22;7285;50.894;5.462;2023-08-21T14:40:31;31.30;1.00
14401;DHT22;7285;50.894;5.462;2023-08-21T14:42:58;31.40;1.00
14401;DHT22;7285;50.894;5.462;2023-08-21T14:45:27;31.30;1.00
14401;DHT22;7285;50.894;5.462;2023-08-21T14:47:53;31.40;1.00
14401;DHT22;7285;50.894;5.462;2023-08-21T14:50:20;31.50;1.00
14401;DHT22;7285;50.894;5.462;2023-08-21T14:52:47;31.40;1.00
14401;DHT22;7285;50.894;5.462;2023-08-21T14:55:15;31.50;1.00
14401;DHT22;7285;50.894;5.462;2023-08-21T14:57:41;31.70;1.00
14401;DHT22;7285;50.894;5.462;2023-08-21T15:00:09;31.40;1.00
14401;DHT22;7285;50.894;5.462;2023-08-21T15:02:38;31.60;1.00
14401;DHT22;7285;50.894;5.462;2023-08-21T15:05:06;31.40;1.00
14401;DHT22;7285;50.894;5.462;2023-08-21T15:07:33;31.50;1.00
14401;DHT22;7285;50.894;5.462;2023-08-21T15:10:00;31.60;1.00
14401;DHT22;7285;50.894;5.462;2023-08-21T15:12:27;31.70;1.00
14401;DHT22;7285;50.894;5.462;2023-08-21T15:14:53;31.60;1.00
14401;DHT22;7285;50.894;5.462;2023-08-21T15:17:20;31.50;1.00
14401;DHT22;7285;50.894;5.462;2023-08-21T15:19:49;31.50;1.00
14401;DHT22;7285;50.894;5.462;2023-08-21T15:22:15;31.40;1.00
14401;DHT22;7285;50.894;5.462;2023-08-21T15:24:42;31.10;1.00
14401;DHT22;7285;50.894;5.462;2023-08-21T15:27:09;31.00;1.00
14401;DHT22;7285;50.894;5.462;2023-08-21T15:29:38;31.20;1.00
14401;DHT22;7285;50.894;5.462;2023-08-21T15:32:05;31.00;1.00
14401;DHT22;7285;50.894;5.462;2023-08-21T15:34:32;31.10;1.00
14401;DHT22;7285;50.894;5.462;2023-08-21T15:37:00;31.10;1.00
14401;DHT22;7285;50.894;5.462;2023-08-21T15:39:27;31.20;1.00
14401;DHT22;7285;50.894;5.462;2023-08-21T15:41:54;31.20;99.90
14401;DHT22;7285;50.894;5.462;2023-08-21T15:44:21;30.90;1.00
14401;DHT22;7285;50.894;5.462;2023-08-21T15:46:48;31.20;1.00
14401;DHT22;7285;50.894;5.462;2023-08-21T15:49:15;31.40;1.00
14401;DHT22;7285;50.894;5.462;2023-08-21T15:51:43;31.50;99.90
14401;DHT22;7285;50.894;5.462;2023-08-21T15:54:12;31.30;1.00
14401;DHT22;7285;50.894;5.462;2023-08-21T15:56:39;30.50;99.90
14401;DHT22;7285;50.894;5.462;2023-08-21T15:59:06;30.50;99.90
14401;DHT22;7285;50.894;5.462;2023-08-21T16:01:33;30.80;99.90